This is the latest recevied weather packets stored in our database for station/object OK1KKY-18. If no packets are shown the sender has not sent any weather packets the latest 1 day(s).
| Time | Temp. | Humidity | Pressure | Rain* | Wind** | Luminosity | Snow |
|---|---|---|---|---|---|---|---|
| 1778084165 | 17.78° C | 58% | 1005.8 hPa | - | - | - | - |
| 1778082365 | 18.89° C | 49% | 1006.2 hPa | - | - | - | - |
| 1778081165 | 19.44° C | 47% | 1006.2 hPa | - | - | - | - |
| 1778080569 | 18.89° C | 48% | 1006.3 hPa | - | - | - | - |
| 1778065563 | 16.11° C | 62% | 1008 hPa | - | - | - | - |
| 1778057162 | 13.89° C | 71% | 1007.6 hPa | - | - | - | - |
| 1778055962 | 13.33° C | 72% | 1007.5 hPa | - | - | - | - |
| 1778055363 | 12.78° C | 75% | 1007.6 hPa | - | - | - | - |
| 1778052963 | 12.78° C | 73% | 1007.1 hPa | - | - | - | - |
| 1778051763 | 13.33° C | 75% | 1007.1 hPa | - | - | - | - |
| 1778050563 | 11.67° C | 79% | 1007 hPa | - | - | - | - |
| 1778048763 | 12.22° C | 82% | 1007 hPa | - | - | - | - |
| 1778048163 | 12.22° C | 82% | 1006.9 hPa | - | - | - | - |
| 1778046963 | 11.67° C | 82% | 1007.1 hPa | - | - | - | - |
| 1778044564 | 11.67° C | 84% | 1006.9 hPa | - | - | - | - |
| 1778043363 | 11.11° C | 86% | 1006.8 hPa | - | - | - | - |
| 1778040363 | 11.11° C | 87% | 1006.4 hPa | - | - | - | - |
| 1778039763 | 11.67° C | 89% | 1006.4 hPa | - | - | - | - |
| 1778038563 | 11.67° C | 90% | 1006.4 hPa | - | - | - | - |
| 1778037963 | 11.11° C | 90% | 1006.3 hPa | - | - | - | - |
| 1778037366 | 11.11° C | 90% | 1006.4 hPa | - | - | - | - |
| 1778036162 | 11.11° C | 91% | 1006.3 hPa | - | - | - | - |
| 1778034961 | 11.11° C | 90% | 1006.3 hPa | - | - | - | - |
| 1778034362 | 11.11° C | 91% | 1006.4 hPa | - | - | - | - |
| 1778033762 | 11.11° C | 91% | 1006.2 hPa | - | - | - | - |
* Rain since midnight (hover to see other rain measurements)
** Current wind speed in m/s (hover to see current wind gust speed)